Tümü
Billabong House Airport YBNH Hava Durumu
There is no TAF data available at YBNH. Showing TAF data for YBCG (2 mi D).
OOL Terminal Alanı Tahmini (YBNH için veri yok)
| Here is the undecoded forecast: 2026/05/08 23:25 YBCG 082325Z 0900/1000 18010KT 9999 FEW040 FM091500 20008KT 9999 -SHRA SCT025 INTER 0915/1000 5000 SHRA BKN014 RMK T 21 23 22 18 Q 1023 1022 1022 1023 TAF3 |
There is no METAR data available at YBNH. Showing METAR data for YBCG (2 mi D).
Yakın zamandaki OOL METAR geçmişi (YBNH verisi yok)
| Date | Time (AEST) | Flight Rules | Wind Dir. | Speed | Type | Height AGL (ft) | Visibility | Temp (°C) | Temp (°F) | Dew Point (°C) | Dew Point (°F) | Rel. Humid. | Pressure | Density Altitude | Remarks |
|---|---|---|---|---|---|---|---|---|---|---|---|---|---|---|---|
| 09-May | 11:30 | VFR | 190° | 8 kt | 10000 meters | 22° | 71° | 13° | 55° | 57% | 1023 mb | 572 ft | |||
| 09-May | 11:00 | VFR | 200° | 9 kt | 10000 meters | 21° | 69° | 11° | 51° | 53% | 1023 mb | 452 ft | |||
| 09-May | 10:00 | VFR | 210° | 7 kt | 10000 meters | 21° | 69° | 10° | 50° | 49% | 1023 mb | 452 ft | |||
| 09-May | 09:30 | VFR | 190° | 8 kt | 10000 meters | 20° | 68° | 9° | 48° | 49% | 1023 mb | 332 ft | |||
| 09-May | 09:00 | VFR | 200° | 8 kt | 10000 meters | 20° | 68° | 9° | 48° | 49% | 1023 mb | 332 ft | |||
| 09-May | 08:30 | VFR | 200° | 6 kt | 10000 meters | 18° | 64° | 11° | 51° | 64% | 1023 mb | 92 ft | |||
| 09-May | 08:00 | VFR | 190° | 7 kt | 10000 meters | 16° | 60° | 11° | 51° | 72% | 1022 mb | -119 ft | |||
| 09-May | 07:30 | VFR | 150° | 6 kt | 10000 meters | 14° | 57° | 12° | 53° | 88% | 1022 mb | -359 ft | |||
| 09-May | 07:00 | VFR | 160° | 4 kt | 10000 meters | 12° | 53° | 11° | 51° | 94% | 1021 mb | -569 ft | |||
| 09-May | 06:30 | VFR | Calm | 10000 meters | 11° | 51° | 10° | 50° | 94% | 1021 mb | -689 ft | ||||
| 09-May | 06:00 | VFR | 170° | 4 kt | 10000 meters | 12° | 53° | 11° | 51° | 94% | 1021 mb | -569 ft | |||
| 09-May | 05:30 | VFR | 180° | 3 kt | 10000 meters | 11° | 51° | 10° | 50° | 94% | 1020 mb | -660 ft | |||
| 09-May | 05:00 | VFR | 210° | 4 kt | 10000 meters | 11° | 51° | 11° | 51° | 100% | 1020 mb | -660 ft | |||
| 09-May | 04:30 | VFR | 190° | 3 kt | 10000 meters | 11° | 51° | 10° | 50° | 94% | 1020 mb | -660 ft | |||
| 09-May | 04:00 | VFR | Calm | 10000 meters | 11° | 51° | 11° | 51° | 100% | 1020 mb | -660 ft | ||||
| 09-May | 03:30 | VFR | Calm | 10000 meters | 10° | 50° | 9° | 48° | 93% | 1020 mb | -780 ft | ||||
| 09-May | 03:00 | VFR | Calm | 10000 meters | 10° | 50° | 10° | 50° | 100% | 1020 mb | -780 ft | ||||
| 09-May | 02:30 | VFR | Calm | 10000 meters | 10° | 50° | 9° | 48° | 93% | 1020 mb | -780 ft | ||||
| 09-May | 02:00 | VFR | Calm | 10000 meters | 10° | 50° | 10° | 50° | 100% | 1020 mb | -780 ft | ||||
| 09-May | 01:30 | VFR | Calm | 10000 meters | 11° | 51° | 10° | 50° | 94% | 1020 mb | -660 ft | ||||
| 09-May | 01:00 | VFR | Calm | 10000 meters | 10° | 50° | 9° | 48° | 93% | 1020 mb | -780 ft | ||||
| 09-May | 00:30 | VFR | Calm | 10000 meters | 10° | 50° | 10° | 50° | 100% | 1020 mb | -780 ft | ||||
| 09-May | 00:00 | VFR | 230° | 3 kt | 10000 meters | 11° | 51° | 10° | 50° | 94% | 1020 mb | -660 ft | |||
| 08-May | 23:30 | VFR | 220° | 3 kt | 10000 meters | 10° | 50° | 10° | 50° | 100% | 1020 mb | -780 ft |
Giriş
| Tarayıcınız desteklenmiyor. tarayıcınızı yükseltin |
